createdAt,value
2017-10-21T00:00:49.515Z,7.65
2017-10-21T00:01:59.638Z,7.65
2017-10-21T00:03:08.469Z,7.65
2017-10-21T00:04:18.432Z,7.65
2017-10-21T00:05:27.325Z,7.63
2017-10-21T00:06:36.857Z,7.63
2017-10-21T00:07:46.359Z,7.65
2017-10-21T00:08:56.240Z,7.71
2017-10-21T00:10:05.101Z,7.77
2017-10-21T00:11:14.546Z,7.77
2017-10-21T00:12:24.004Z,7.75
2017-10-21T00:13:33.527Z,7.73
2017-10-21T00:14:42.970Z,7.76
2017-10-21T00:15:52.466Z,7.73
2017-10-21T00:17:01.810Z,7.69
2017-10-21T00:18:11.339Z,7.73
2017-10-21T00:19:20.789Z,7.73
2017-10-21T00:20:30.129Z,7.77
2017-10-21T00:21:39.626Z,7.77
2017-10-21T00:22:49.053Z,7.80
2017-10-21T00:23:59.178Z,7.84
2017-10-21T00:25:07.919Z,7.86
2017-10-21T00:26:17.440Z,7.86
2017-10-21T00:27:26.868Z,7.88
2017-10-21T00:28:36.301Z,7.92
2017-10-21T00:29:45.753Z,7.94
2017-10-21T00:30:55.181Z,7.92
2017-10-21T00:32:04.683Z,7.90
2017-10-21T00:33:14.081Z,7.94
2017-10-21T00:34:23.567Z,7.94
2017-10-21T00:35:32.991Z,7.98
2017-10-21T00:36:42.498Z,8.02
2017-10-21T00:37:51.898Z,8.06
2017-10-21T00:39:01.487Z,8.11
2017-10-21T00:40:11.806Z,8.17
2017-10-21T00:41:20.273Z,8.19
2017-10-21T00:42:29.741Z,8.17
2017-10-21T00:43:39.272Z,8.13
2017-10-21T00:44:48.670Z,8.18
2017-10-21T00:45:58.128Z,8.18
2017-10-21T00:47:07.557Z,8.17
2017-10-21T00:48:17.086Z,8.14
2017-10-21T00:49:26.698Z,8.13
2017-10-21T00:50:36.456Z,8.10
2017-10-21T00:51:45.381Z,8.06
2017-10-21T00:52:54.836Z,8.06
2017-10-21T00:54:04.290Z,8.06
2017-10-21T00:55:13.784Z,8.06
2017-10-21T00:56:24.211Z,8.06
2017-10-21T00:57:32.715Z,8.13
2017-10-21T00:58:42.143Z,8.15
2017-10-21T00:59:51.617Z,8.17
2017-10-21T01:01:01.048Z,8.18
2017-10-21T01:02:10.514Z,8.17
2017-10-21T01:03:20.059Z,8.18
2017-10-21T01:04:29.454Z,8.21
2017-10-21T01:05:38.917Z,8.25
2017-10-21T01:06:48.365Z,8.26
2017-10-21T01:07:57.817Z,8.25
2017-10-21T01:09:07.272Z,8.31
2017-10-21T01:10:16.759Z,8.31
2017-10-21T01:11:26.259Z,8.32
2017-10-21T01:12:35.692Z,8.34
2017-10-21T01:13:45.134Z,8.31
2017-10-21T01:14:54.663Z,8.30
2017-10-21T01:16:04.589Z,8.31
2017-10-21T01:17:13.604Z,8.27
2017-10-21T01:18:23.033Z,8.26
2017-10-21T01:19:32.492Z,8.23
2017-10-21T01:20:41.913Z,8.26
2017-10-21T01:21:51.365Z,8.27
2017-10-21T01:23:00.927Z,8.31
2017-10-21T01:24:10.316Z,8.38
2017-10-21T01:25:19.781Z,8.43
2017-10-21T01:26:29.235Z,8.47
2017-10-21T01:27:38.692Z,8.43
2017-10-21T01:28:48.154Z,8.39
2017-10-21T01:29:57.641Z,8.35
2017-10-21T01:31:08.074Z,8.31
2017-10-21T01:32:16.546Z,8.26
2017-10-21T01:33:26.013Z,8.22
2017-10-21T01:34:36.068Z,8.22
2017-10-21T01:35:44.940Z,8.22
2017-10-21T01:36:54.497Z,8.22
2017-10-21T01:38:03.876Z,8.25
2017-10-21T01:39:13.355Z,8.23
2017-10-21T01:40:22.832Z,8.26
2017-10-21T01:41:32.312Z,8.28
2017-10-21T01:42:41.746Z,8.31
2017-10-21T01:43:51.271Z,8.32
2017-10-21T01:45:00.727Z,8.34
2017-10-21T01:46:10.127Z,8.32
2017-10-21T01:47:19.599Z,8.32
2017-10-21T01:48:29.088Z,8.32
2017-10-21T01:49:38.630Z,8.35
2017-10-21T01:50:48.045Z,8.36
2017-10-21T01:51:57.473Z,8.39
2017-10-21T01:53:06.920Z,8.40
2017-10-21T01:54:16.381Z,8.43
2017-10-21T01:55:25.874Z,8.43
2017-10-21T01:56:36.310Z,8.48
2017-10-21T01:57:44.782Z,8.51
2017-10-21T01:58:54.346Z,8.53
2017-10-21T02:00:03.959Z,8.55
2017-10-21T02:01:13.204Z,8.56
2017-10-21T02:02:22.738Z,8.56
2017-10-21T02:03:32.162Z,8.53
2017-10-21T02:04:41.611Z,8.50
2017-10-21T02:05:51.049Z,8.48
2017-10-21T02:07:00.517Z,8.51
2017-10-21T02:08:10.488Z,8.55
2017-10-21T02:09:19.506Z,8.60
2017-10-21T02:10:28.961Z,8.64
2017-10-21T02:11:38.400Z,8.64
2017-10-21T02:12:47.969Z,8.64
2017-10-21T02:13:57.428Z,8.64
2017-10-21T02:15:07.035Z,8.61
2017-10-21T02:16:16.298Z,8.59
2017-10-21T02:17:25.757Z,8.56
2017-10-21T02:18:35.340Z,8.56
2017-10-21T02:19:44.782Z,8.56
2017-10-21T02:20:54.202Z,8.53
2017-10-21T02:22:03.726Z,8.52
2017-10-21T02:23:13.119Z,8.55
2017-10-21T02:24:22.690Z,8.59
2017-10-21T02:25:32.129Z,8.61
2017-10-21T02:26:41.545Z,8.65
2017-10-21T02:27:51.584Z,8.68
2017-10-21T02:29:00.501Z,8.72
2017-10-21T02:30:10.560Z,8.72
2017-10-21T02:31:19.430Z,8.72
2017-10-21T02:32:28.988Z,8.72
2017-10-21T02:33:38.416Z,8.68
2017-10-21T02:34:47.879Z,8.61
2017-10-21T02:35:57.376Z,8.60
2017-10-21T02:37:06.807Z,8.55
2017-10-21T02:38:16.269Z,8.50
2017-10-21T02:39:25.739Z,8.46
2017-10-21T02:40:35.308Z,8.43
2017-10-21T02:41:44.676Z,8.42
2017-10-21T02:42:54.154Z,8.39
2017-10-21T02:44:03.679Z,8.36
2017-10-21T02:45:13.131Z,8.32
2017-10-21T02:46:22.637Z,8.25
2017-10-21T02:47:32.000Z,8.19
2017-10-21T02:48:41.494Z,8.10
2017-10-21T02:49:50.945Z,8.06
2017-10-21T02:51:00.379Z,7.94
2017-10-21T02:52:09.880Z,7.80
2017-10-21T02:53:19.309Z,7.69
2017-10-21T02:54:28.837Z,7.63
2017-10-21T02:55:38.963Z,7.57
2017-10-21T02:56:47.700Z,7.53
2017-10-21T02:57:57.133Z,7.46
2017-10-21T02:59:06.654Z,7.38
2017-10-21T03:00:16.059Z,7.36
2017-10-21T03:01:25.512Z,7.34
2017-10-21T03:02:35.038Z,7.26
2017-10-21T03:03:45.390Z,7.21
2017-10-21T03:04:53.913Z,7.17
2017-10-21T03:06:03.296Z,7.17
2017-10-21T03:07:12.753Z,7.15
2017-10-21T03:08:22.280Z,7.09
2017-10-21T03:09:31.631Z,7.01
2017-10-21T03:10:41.160Z,6.92
2017-10-21T03:11:50.572Z,6.84
2017-10-21T03:13:00.509Z,6.80
2017-10-21T03:14:09.424Z,6.80
2017-10-21T03:15:18.876Z,6.77
2017-10-21T03:16:28.383Z,6.79
2017-10-21T03:17:37.725Z,6.78
2017-10-21T03:18:48.161Z,6.73
2017-10-21T03:19:56.681Z,6.69
2017-10-21T03:21:06.095Z,6.63
2017-10-21T03:22:15.468Z,6.63
2017-10-21T03:23:24.952Z,6.63
2017-10-21T03:24:34.338Z,6.57
2017-10-21T03:25:43.821Z,6.53
2017-10-21T03:26:53.242Z,6.59
2017-10-21T03:28:02.622Z,6.61
2017-10-21T03:29:12.088Z,6.67
2017-10-21T03:30:21.494Z,6.65
2017-10-21T03:31:30.950Z,6.71
2017-10-21T03:32:40.321Z,6.82
2017-10-21T03:33:49.801Z,6.84
2017-10-21T03:34:59.246Z,6.88
2017-10-21T03:36:08.658Z,6.92
2017-10-21T03:37:18.085Z,6.92
2017-10-21T03:38:27.512Z,6.90
2017-10-21T03:39:36.940Z,6.90
2017-10-21T03:40:46.341Z,6.82
2017-10-21T03:41:55.797Z,6.84
2017-10-21T03:43:05.230Z,6.84
2017-10-21T03:44:14.602Z,6.88
2017-10-21T03:45:24.055Z,6.86
2017-10-21T03:46:33.457Z,6.92
2017-10-21T03:47:42.939Z,6.90
2017-10-21T03:48:52.365Z,6.96
2017-10-21T03:50:01.766Z,7.05
2017-10-21T03:51:11.221Z,7.13
2017-10-21T03:52:20.650Z,7.21
2017-10-21T03:53:30.024Z,7.23
2017-10-21T03:54:39.452Z,7.28
2017-10-21T03:55:48.952Z,7.30
2017-10-21T03:56:58.361Z,7.38
2017-10-21T03:58:07.866Z,7.46
2017-10-21T03:59:17.186Z,7.59
2017-10-21T04:00:26.633Z,7.69
2017-10-21T04:01:36.042Z,7.77
2017-10-21T04:02:45.479Z,7.88
2017-10-21T04:03:54.932Z,7.90
2017-10-21T04:05:04.389Z,7.84
2017-10-21T04:06:13.798Z,7.82
2017-10-21T04:07:23.238Z,7.76
2017-10-21T04:08:32.743Z,7.63
2017-10-21T04:09:42.175Z,7.57
2017-10-21T04:10:51.789Z,7.55
2017-10-21T04:12:01.106Z,7.55
2017-10-21T04:13:10.462Z,7.44
2017-10-21T04:14:19.890Z,7.44
2017-10-21T04:15:29.337Z,7.44
2017-10-21T04:16:38.746Z,7.53
2017-10-21T04:17:48.273Z,7.61
2017-10-21T04:18:58.625Z,7.67
2017-10-21T04:20:07.314Z,7.69
2017-10-21T04:21:16.517Z,7.69
2017-10-21T04:22:25.956Z,7.67
2017-10-21T04:23:35.487Z,7.65
2017-10-21T04:24:44.844Z,7.65
2017-10-21T04:25:54.393Z,7.67
2017-10-21T04:27:03.875Z,7.67
2017-10-21T04:28:13.304Z,7.69
2017-10-21T04:29:22.731Z,7.69
2017-10-21T04:30:32.105Z,7.69
2017-10-21T04:31:41.517Z,7.73
2017-10-21T04:32:51.041Z,7.76
2017-10-21T04:34:00.470Z,7.76
2017-10-21T04:35:09.919Z,7.78
2017-10-21T04:36:19.293Z,7.80
2017-10-21T04:37:28.753Z,7.82
2017-10-21T04:38:38.283Z,7.86
2017-10-21T04:39:47.646Z,7.84
2017-10-21T04:40:57.324Z,7.88
2017-10-21T04:42:06.566Z,7.98
2017-10-21T04:43:16.200Z,8.06
2017-10-21T04:44:25.438Z,8.14
2017-10-21T04:45:34.916Z,8.21
2017-10-21T04:46:44.347Z,8.31
2017-10-21T04:47:53.817Z,8.34
2017-10-21T04:49:03.341Z,8.34
2017-10-21T04:50:13.027Z,8.35
2017-10-21T04:51:22.196Z,8.35
2017-10-21T04:52:31.633Z,8.36
2017-10-21T04:53:41.076Z,8.40
2017-10-21T04:54:50.582Z,8.42
2017-10-21T04:56:00.196Z,8.47
2017-10-21T04:57:09.544Z,8.47
2017-10-21T04:58:18.911Z,8.46
2017-10-21T04:59:28.363Z,8.43
2017-10-21T05:00:37.848Z,8.43
2017-10-21T05:01:47.284Z,8.43
2017-10-21T05:02:56.737Z,8.47
2017-10-21T05:04:06.213Z,8.50
2017-10-21T05:05:15.760Z,8.55
2017-10-21T05:06:25.173Z,8.56
2017-10-21T05:07:34.600Z,8.55
2017-10-21T05:08:44.042Z,8.53
2017-10-21T05:09:53.525Z,8.56
2017-10-21T05:11:03.519Z,8.56
2017-10-21T05:12:12.516Z,8.56
2017-10-21T05:13:21.944Z,8.56
2017-10-21T05:14:31.886Z,8.56
2017-10-21T05:15:40.918Z,8.55
2017-10-21T05:16:50.331Z,8.57
2017-10-21T05:17:59.760Z,8.56
2017-10-21T05:19:09.288Z,8.53
2017-10-21T05:20:18.736Z,8.50
2017-10-21T05:21:28.221Z,8.47
2017-10-21T05:22:37.673Z,8.38
2017-10-21T05:23:47.112Z,8.30
2017-10-21T05:24:56.533Z,8.18
2017-10-21T05:26:06.001Z,8.13
2017-10-21T05:27:15.440Z,8.10
2017-10-21T05:28:24.917Z,8.14
2017-10-21T05:29:34.350Z,8.17
2017-10-21T05:30:43.837Z,8.17
2017-10-21T05:31:53.307Z,8.14
2017-10-21T05:33:02.737Z,8.14
2017-10-21T05:34:12.346Z,8.13
2017-10-21T05:35:21.665Z,8.14
2017-10-21T05:36:31.122Z,8.14
2017-10-21T05:37:41.162Z,8.13
2017-10-21T05:38:50.079Z,8.15
2017-10-21T05:39:59.507Z,8.22
2017-10-21T05:41:09.052Z,8.31
2017-10-21T05:42:18.415Z,8.35
2017-10-21T05:43:27.892Z,8.39
2017-10-21T05:44:37.337Z,8.44
2017-10-21T05:45:46.817Z,8.48
2017-10-21T05:46:56.281Z,8.52
2017-10-21T05:48:05.712Z,8.51
2017-10-21T05:49:15.239Z,8.46
2017-10-21T05:50:24.851Z,8.32
2017-10-21T05:51:34.106Z,8.18
2017-10-21T05:52:43.627Z,8.02
2017-10-21T05:53:53.021Z,7.98
2017-10-21T05:55:02.483Z,8.02
2017-10-21T05:56:11.972Z,8.11
2017-10-21T05:57:21.439Z,8.22
2017-10-21T05:58:30.969Z,8.27
2017-10-21T05:59:40.343Z,8.31
2017-10-21T06:00:49.842Z,8.31
2017-10-21T06:01:59.358Z,8.35
2017-10-21T06:03:08.783Z,8.40
2017-10-21T06:04:18.178Z,8.42
2017-10-21T06:05:27.758Z,8.36
2017-10-21T06:06:37.107Z,8.25
2017-10-21T06:07:46.576Z,8.11
2017-10-21T06:08:56.132Z,8.07
2017-10-21T06:10:05.637Z,8.10
2017-10-21T06:11:14.983Z,8.14
2017-10-21T06:12:24.429Z,8.28
2017-10-21T06:13:33.943Z,8.42
2017-10-21T06:14:43.345Z,8.52
2017-10-21T06:15:52.918Z,8.55
2017-10-21T06:17:02.330Z,8.59
2017-10-21T06:18:11.759Z,8.60
2017-10-21T06:19:21.289Z,8.63
2017-10-21T06:20:30.901Z,8.65
2017-10-21T06:21:40.147Z,8.68
2017-10-21T06:22:49.675Z,8.72
2017-10-21T06:23:59.075Z,8.77
2017-10-21T06:25:08.642Z,8.81
2017-10-21T06:26:18.039Z,8.81
2017-10-21T06:27:27.595Z,8.82
2017-10-21T06:28:37.019Z,8.88
2017-10-21T06:29:46.447Z,8.89
2017-10-21T06:30:55.939Z,8.96
2017-10-21T06:32:05.408Z,8.98
2017-10-21T06:33:14.943Z,8.97
2017-10-21T06:34:24.366Z,9.00
2017-10-21T06:35:34.082Z,9.02
2017-10-21T06:36:43.325Z,9.06
2017-10-21T06:37:52.855Z,9.13
2017-10-21T06:39:02.295Z,9.17
2017-10-21T06:40:11.813Z,9.21
2017-10-21T06:41:21.277Z,9.26
2017-10-21T06:42:30.771Z,9.31
2017-10-21T06:43:40.238Z,9.31
2017-10-21T06:44:49.740Z,9.27
2017-10-21T06:45:59.240Z,9.27
2017-10-21T06:47:08.799Z,9.18
2017-10-21T06:48:18.220Z,9.11
2017-10-21T06:49:27.751Z,9.06
2017-10-21T06:50:37.297Z,8.97
2017-10-21T06:51:46.686Z,8.93
2017-10-21T06:52:56.173Z,8.93
2017-10-21T06:54:05.672Z,8.85
2017-10-21T06:55:15.149Z,8.85
2017-10-21T06:56:24.742Z,8.89
2017-10-21T06:57:34.159Z,8.90
2017-10-21T06:58:43.684Z,8.93
2017-10-21T06:59:53.114Z,8.93
2017-10-21T07:01:02.631Z,8.90
2017-10-21T07:02:12.075Z,8.77
2017-10-21T07:03:21.612Z,8.65
2017-10-21T07:04:31.132Z,8.60
2017-10-21T07:05:40.577Z,8.68
2017-10-21T07:06:50.093Z,8.80
2017-10-21T07:07:59.519Z,8.89
2017-10-21T07:09:09.048Z,9.03
2017-10-21T07:10:18.477Z,9.13
2017-10-21T07:11:28.025Z,9.13
2017-10-21T07:12:37.539Z,9.19
2017-10-21T07:13:46.930Z,9.26
2017-10-21T07:14:56.426Z,9.46
2017-10-21T07:16:06.110Z,9.59
2017-10-21T07:17:15.409Z,9.63
2017-10-21T07:18:24.985Z,9.67
2017-10-21T07:19:34.490Z,9.64
2017-10-21T07:20:43.919Z,9.56
2017-10-21T07:21:53.988Z,9.55
2017-10-21T07:23:02.928Z,9.56
2017-10-21T07:24:12.397Z,9.64
2017-10-21T07:25:21.906Z,9.77
2017-10-21T07:26:31.511Z,9.89
2017-10-21T07:27:40.927Z,9.93
2017-10-21T07:28:50.530Z,9.94
2017-10-21T07:29:59.985Z,9.94
2017-10-21T07:31:09.477Z,9.93
2017-10-21T07:32:18.964Z,9.89
2017-10-21T07:33:28.583Z,9.92
2017-10-21T07:34:38.002Z,9.98
2017-10-21T07:35:47.531Z,10.06
2017-10-21T07:36:57.064Z,10.19
2017-10-21T07:38:06.548Z,10.27
2017-10-21T07:39:16.126Z,10.30
2017-10-21T07:40:25.587Z,10.32
2017-10-21T07:41:35.202Z,10.36
2017-10-21T07:42:44.628Z,10.35
2017-10-21T07:43:54.157Z,10.31
2017-10-21T07:45:03.851Z,10.28
2017-10-21T07:46:13.323Z,10.34
2017-10-21T07:47:22.740Z,10.43
2017-10-21T07:48:32.274Z,10.47
2017-10-21T07:49:41.973Z,10.52
2017-10-21T07:50:51.445Z,10.63
2017-10-21T07:52:00.966Z,10.65
2017-10-21T07:53:10.491Z,10.61
2017-10-21T07:54:20.022Z,10.56
2017-10-21T07:55:29.550Z,10.64
2017-10-21T07:56:39.099Z,10.68
2017-10-21T07:57:48.613Z,10.64
2017-10-21T07:58:58.078Z,10.56
2017-10-21T08:00:08.184Z,10.50
2017-10-21T08:01:17.226Z,10.56
2017-10-21T08:02:26.733Z,10.81
2017-10-21T08:03:36.265Z,11.00
2017-10-21T08:04:45.796Z,11.09
2017-10-21T08:05:55.353Z,11.13
2017-10-21T08:07:04.866Z,11.15
2017-10-21T08:08:14.415Z,11.22
2017-10-21T08:09:24.019Z,11.22
2017-10-21T08:10:33.514Z,11.28
2017-10-21T08:11:43.102Z,11.35
2017-10-21T08:12:52.620Z,11.39
2017-10-21T08:14:02.171Z,11.46
2017-10-21T08:15:11.724Z,11.51
2017-10-21T08:16:21.325Z,11.61
2017-10-21T08:17:30.839Z,11.64
2017-10-21T08:18:40.403Z,11.68
2017-10-21T08:19:49.997Z,11.73
2017-10-21T08:20:59.551Z,11.77
2017-10-21T08:22:10.083Z,11.80
2017-10-21T08:23:18.656Z,11.81
2017-10-21T08:24:28.325Z,11.81
2017-10-21T08:25:38.369Z,11.89
2017-10-21T08:26:47.389Z,11.88
2017-10-21T08:27:57.019Z,11.88
2017-10-21T08:29:06.514Z,11.93
2017-10-21T08:30:16.100Z,12.03
2017-10-21T08:31:25.735Z,12.22
2017-10-21T08:32:35.345Z,12.44
2017-10-21T08:33:44.876Z,12.63
2017-10-21T08:34:54.423Z,12.59
2017-10-21T08:36:04.066Z,12.67
2017-10-21T08:37:13.670Z,12.85
2017-10-21T08:38:23.235Z,13.01
2017-10-21T08:39:33.013Z,13.05
2017-10-21T08:40:42.468Z,13.02
2017-10-21T08:41:52.088Z,13.05
2017-10-21T08:43:01.684Z,13.07
2017-10-21T08:44:11.366Z,13.10
2017-10-21T08:45:20.941Z,13.19
2017-10-21T08:46:30.597Z,13.34
2017-10-21T08:47:40.210Z,13.48
2017-10-21T08:48:49.897Z,13.64
2017-10-21T08:50:00.042Z,13.75
2017-10-21T08:51:09.179Z,13.77
2017-10-21T08:52:18.897Z,13.64
2017-10-21T08:53:28.532Z,13.61
2017-10-21T08:54:38.165Z,13.56
2017-10-21T08:55:47.797Z,13.61
2017-10-21T08:56:57.459Z,13.59
2017-10-21T08:58:07.575Z,13.60
2017-10-21T08:59:16.796Z,13.59
2017-10-21T09:00:26.432Z,13.53
2017-10-21T09:01:36.049Z,13.60
2017-10-21T09:02:45.696Z,13.67
2017-10-21T09:03:55.431Z,13.76
2017-10-21T09:05:05.148Z,13.72
2017-10-21T09:06:14.690Z,13.67
2017-10-21T09:07:24.336Z,13.64
2017-10-21T09:08:34.577Z,13.64
2017-10-21T09:09:43.775Z,13.59
2017-10-21T09:10:53.331Z,13.55
2017-10-21T09:12:03.082Z,13.56
2017-10-21T09:13:12.659Z,13.56
2017-10-21T09:14:22.331Z,13.53
2017-10-21T09:15:32.069Z,13.51
2017-10-21T09:16:42.396Z,13.48
2017-10-21T09:17:51.409Z,13.39
2017-10-21T09:19:01.478Z,13.30
2017-10-21T09:20:10.701Z,13.22
2017-10-21T09:21:20.294Z,13.27
2017-10-21T09:22:29.922Z,13.38
2017-10-21T09:23:40.076Z,13.52
2017-10-21T09:24:49.245Z,13.64
2017-10-21T09:25:58.913Z,13.81
2017-10-21T09:27:08.623Z,13.98
2017-10-21T09:28:18.268Z,14.17
2017-10-21T09:29:27.978Z,14.36
2017-10-21T09:30:37.702Z,14.55
2017-10-21T09:31:47.336Z,14.71
2017-10-21T09:32:57.659Z,14.72
2017-10-21T09:34:06.885Z,14.59
2017-10-21T09:35:16.441Z,14.46
2017-10-21T09:36:26.198Z,14.34
2017-10-21T09:37:35.781Z,14.25
2017-10-21T09:38:46.469Z,14.18
2017-10-21T09:39:55.177Z,14.15
2017-10-21T09:41:04.846Z,14.13
2017-10-21T09:42:14.728Z,14.19
2017-10-21T09:43:24.226Z,14.30
2017-10-21T09:44:33.913Z,14.35
2017-10-21T09:45:43.590Z,14.44
2017-10-21T09:46:53.310Z,14.57
2017-10-21T09:48:02.966Z,14.61
2017-10-21T09:49:12.751Z,14.65
2017-10-21T09:50:22.384Z,14.64
2017-10-21T09:51:32.136Z,14.68
2017-10-21T09:52:41.752Z,14.72
2017-10-21T09:53:51.434Z,14.77
2017-10-21T09:55:01.135Z,14.86
2017-10-21T09:56:10.834Z,14.93
2017-10-21T09:57:20.575Z,15.05
2017-10-21T09:58:30.242Z,15.11
2017-10-21T09:59:39.960Z,15.14
2017-10-21T10:00:50.718Z,15.14
2017-10-21T10:01:59.392Z,15.10
2017-10-21T10:03:09.172Z,15.13
2017-10-21T10:04:18.796Z,15.17
2017-10-21T10:05:28.499Z,15.23
2017-10-21T10:06:38.214Z,15.32
2017-10-21T10:07:48.003Z,15.35
2017-10-21T10:08:57.601Z,15.34
2017-10-21T10:10:07.374Z,15.27
2017-10-21T10:11:17.022Z,15.25
2017-10-21T10:12:26.739Z,15.17
2017-10-21T10:13:36.475Z,15.21
2017-10-21T10:14:46.215Z,15.32
2017-10-21T10:15:55.846Z,15.51
2017-10-21T10:17:05.568Z,15.64
2017-10-21T10:18:15.313Z,15.76
2017-10-21T10:19:25.046Z,15.79
2017-10-21T10:20:34.783Z,15.85
2017-10-21T10:21:44.948Z,15.80
2017-10-21T10:22:54.156Z,15.77
2017-10-21T10:24:03.891Z,15.68
2017-10-21T10:25:13.574Z,15.56
2017-10-21T10:26:23.291Z,15.44
2017-10-21T10:27:33.110Z,15.38
2017-10-21T10:28:42.802Z,15.26
2017-10-21T10:29:52.536Z,15.25
2017-10-21T10:31:02.196Z,15.30
2017-10-21T10:32:11.858Z,15.52
2017-10-21T10:33:21.567Z,15.81
2017-10-21T10:34:31.299Z,16.04
2017-10-21T10:35:41.035Z,16.29
2017-10-21T10:36:50.713Z,16.62
2017-10-21T10:38:00.505Z,16.54
2017-10-21T10:39:10.144Z,16.40
2017-10-21T10:40:19.949Z,16.32
2017-10-21T10:41:29.562Z,16.15
2017-10-21T10:42:39.294Z,16.07
2017-10-21T10:43:49.004Z,16.05
2017-10-21T10:44:58.788Z,16.01
2017-10-21T10:46:08.447Z,15.94
2017-10-21T10:47:18.198Z,15.98
2017-10-21T10:48:27.817Z,16.12
2017-10-21T10:49:37.549Z,16.29
2017-10-21T10:50:47.285Z,16.47
2017-10-21T10:51:57.036Z,16.68
2017-10-21T10:53:06.755Z,16.94
2017-10-21T10:54:16.387Z,17.20
2017-10-21T10:55:26.109Z,17.31
2017-10-21T10:56:35.860Z,17.21
2017-10-21T10:57:45.593Z,17.23
2017-10-21T10:58:55.331Z,17.23
2017-10-21T11:00:05.015Z,17.17
2017-10-21T11:01:14.800Z,17.03
2017-10-21T11:02:24.794Z,17.02
2017-10-21T11:03:34.198Z,17.14
2017-10-21T11:04:43.935Z,17.37
2017-10-21T11:05:53.742Z,17.54
2017-10-21T11:07:04.004Z,17.64
2017-10-21T11:08:13.290Z,17.69
2017-10-21T11:09:22.945Z,17.79
2017-10-21T11:10:32.687Z,17.80
2017-10-21T11:11:42.462Z,17.97
2017-10-21T11:12:52.254Z,17.93
2017-10-21T11:14:01.996Z,17.94
2017-10-21T11:15:11.754Z,17.95
2017-10-21T11:16:21.567Z,17.95
2017-10-21T11:17:31.419Z,17.95
2017-10-21T11:18:41.082Z,17.95
2017-10-21T11:19:50.876Z,18.01
2017-10-21T11:21:00.709Z,18.04
2017-10-21T11:22:11.213Z,18.09
2017-10-21T11:23:20.282Z,18.10
2017-10-21T11:24:30.018Z,18.06
2017-10-21T11:25:40.780Z,17.95
2017-10-21T11:26:49.614Z,17.96
2017-10-21T11:27:59.348Z,17.96
2017-10-21T11:29:09.115Z,17.86
2017-10-21T11:30:18.876Z,17.67
2017-10-21T11:31:28.734Z,17.70
2017-10-21T11:32:38.441Z,17.73
2017-10-21T11:33:48.205Z,17.64
2017-10-21T11:34:57.943Z,17.52
2017-10-21T11:36:07.689Z,17.32
2017-10-21T11:37:17.464Z,17.20
2017-10-21T11:38:27.250Z,17.12
2017-10-21T11:39:36.934Z,17.18
2017-10-21T11:40:46.680Z,17.32
2017-10-21T11:41:56.454Z,17.43
2017-10-21T11:43:06.196Z,17.36
2017-10-21T11:44:15.926Z,17.32
2017-10-21T11:45:25.665Z,17.27
2017-10-21T11:46:35.381Z,17.23
2017-10-21T11:47:45.316Z,17.27
2017-10-21T11:48:54.944Z,17.21
2017-10-21T11:50:04.603Z,17.00
2017-10-21T11:51:14.337Z,16.70
2017-10-21T11:52:24.260Z,16.51
2017-10-21T11:53:33.811Z,16.42
2017-10-21T11:54:43.542Z,16.25
2017-10-21T11:55:53.278Z,16.11
2017-10-21T11:57:03.095Z,16.01
2017-10-21T11:58:12.615Z,15.86
2017-10-21T11:59:22.292Z,15.82
2017-10-21T12:00:32.089Z,15.81
2017-10-21T12:01:41.698Z,15.82
2017-10-21T12:02:51.416Z,15.90
2017-10-21T12:04:01.080Z,15.90
2017-10-21T12:05:10.851Z,15.97
2017-10-21T12:06:20.494Z,16.03
2017-10-21T12:07:30.407Z,16.04
2017-10-21T12:08:39.871Z,16.02
2017-10-21T12:09:49.563Z,16.04
2017-10-21T12:10:59.253Z,16.09
2017-10-21T12:12:09.142Z,16.10
2017-10-21T12:13:18.692Z,16.11
2017-10-21T12:14:28.328Z,16.10
2017-10-21T12:15:38.021Z,16.03
2017-10-21T12:16:47.706Z,16.06
2017-10-21T12:17:57.422Z,16.07
2017-10-21T12:19:07.093Z,16.02
2017-10-21T12:20:16.805Z,15.90
2017-10-21T12:21:26.531Z,15.85
2017-10-21T12:22:36.349Z,15.77
2017-10-21T12:23:45.827Z,15.72
2017-10-21T12:24:55.609Z,15.68
2017-10-21T12:26:05.865Z,15.63
2017-10-21T12:27:14.888Z,15.68
2017-10-21T12:28:24.542Z,15.71
2017-10-21T12:29:34.345Z,15.73
2017-10-21T12:30:43.907Z,15.82
2017-10-21T12:31:53.574Z,15.85
2017-10-21T12:33:03.272Z,15.82
2017-10-21T12:34:13.930Z,15.79
2017-10-21T12:35:22.618Z,15.73
2017-10-21T12:36:32.374Z,15.68
2017-10-21T12:37:42.007Z,15.60
2017-10-21T12:38:51.742Z,15.59
2017-10-21T12:40:01.375Z,15.63
2017-10-21T12:41:11.010Z,15.69
2017-10-21T12:42:20.766Z,15.79
2017-10-21T12:43:30.394Z,15.82
2017-10-21T12:44:40.038Z,15.81
2017-10-21T12:45:49.743Z,15.73
2017-10-21T12:46:59.520Z,15.64
2017-10-21T12:48:09.105Z,15.56
2017-10-21T12:49:18.757Z,15.56
2017-10-21T12:50:28.441Z,15.60
2017-10-21T12:51:38.701Z,15.69
2017-10-21T12:52:47.866Z,15.81
2017-10-21T12:53:57.493Z,15.97
2017-10-21T12:55:07.218Z,16.21
2017-10-21T12:56:16.951Z,16.43
2017-10-21T12:57:26.613Z,16.55
2017-10-21T12:58:36.323Z,16.70
2017-10-21T12:59:46.009Z,16.79
2017-10-21T13:00:55.737Z,16.75
2017-10-21T13:02:05.526Z,16.72
2017-10-21T13:03:15.284Z,16.64
2017-10-21T13:04:24.892Z,16.61
2017-10-21T13:05:34.628Z,16.60
2017-10-21T13:06:44.317Z,16.59
2017-10-21T13:07:54.059Z,16.55
2017-10-21T13:09:04.347Z,16.54
2017-10-21T13:10:13.473Z,16.52
2017-10-21T13:11:23.278Z,16.55
2017-10-21T13:12:32.961Z,16.63
2017-10-21T13:13:42.619Z,16.71
2017-10-21T13:14:52.408Z,16.80
2017-10-21T13:16:02.143Z,16.82
2017-10-21T13:17:11.896Z,16.80
2017-10-21T13:18:21.614Z,16.81
2017-10-21T13:19:31.246Z,16.79
2017-10-21T13:20:40.981Z,16.71
2017-10-21T13:21:50.716Z,16.70
2017-10-21T13:23:00.429Z,16.71
2017-10-21T13:24:10.189Z,16.69
2017-10-21T13:25:19.849Z,16.73
2017-10-21T13:26:29.659Z,16.79
2017-10-21T13:27:39.323Z,16.84
2017-10-21T13:28:49.029Z,16.82
2017-10-21T13:29:59.304Z,16.78
2017-10-21T13:31:08.573Z,16.76
2017-10-21T13:32:18.928Z,16.72
2017-10-21T13:33:27.921Z,16.70
2017-10-21T13:34:37.701Z,16.65
2017-10-21T13:35:47.437Z,16.63
2017-10-21T13:36:57.172Z,16.61
2017-10-21T13:38:06.822Z,16.57
2017-10-21T13:39:16.500Z,16.54
2017-10-21T13:40:26.582Z,16.55
2017-10-21T13:41:35.938Z,16.52
2017-10-21T13:42:45.676Z,16.48
2017-10-21T13:43:55.354Z,16.48
2017-10-21T13:45:05.070Z,16.48
2017-10-21T13:46:14.850Z,16.54
2017-10-21T13:47:24.768Z,16.69
2017-10-21T13:48:34.233Z,16.79
2017-10-21T13:49:43.951Z,16.86
2017-10-21T13:50:53.689Z,16.86
2017-10-21T13:52:03.425Z,16.81
2017-10-21T13:53:13.189Z,16.75
2017-10-21T13:54:22.854Z,16.72
2017-10-21T13:55:32.631Z,16.79
2017-10-21T13:56:42.292Z,16.92
2017-10-21T13:57:52.283Z,17.03
2017-10-21T13:59:01.748Z,17.19
2017-10-21T14:00:11.484Z,17.29
2017-10-21T14:01:21.307Z,17.36
2017-10-21T14:02:31.001Z,17.42
2017-10-21T14:03:40.775Z,17.43
2017-10-21T14:04:50.478Z,17.39
2017-10-21T14:06:00.248Z,17.31
2017-10-21T14:07:09.994Z,17.28
2017-10-21T14:08:19.777Z,17.36
2017-10-21T14:09:29.504Z,17.43
2017-10-21T14:10:39.269Z,17.54
2017-10-21T14:11:49.128Z,17.59
2017-10-21T14:12:58.823Z,17.62
2017-10-21T14:14:08.598Z,17.51
2017-10-21T14:15:18.335Z,17.29
2017-10-21T14:16:28.172Z,17.15
2017-10-21T14:17:37.849Z,17.03
2017-10-21T14:18:47.648Z,16.92
2017-10-21T14:19:57.382Z,16.84
2017-10-21T14:21:07.045Z,16.79
2017-10-21T14:22:16.853Z,16.79
2017-10-21T14:23:26.534Z,16.78
2017-10-21T14:24:36.394Z,16.76
2017-10-21T14:25:45.982Z,16.75
2017-10-21T14:26:55.865Z,16.69
2017-10-21T14:28:05.468Z,16.65
2017-10-21T14:29:15.262Z,16.62
2017-10-21T14:30:24.996Z,16.63
2017-10-21T14:31:34.637Z,16.62
2017-10-21T14:32:44.401Z,16.60
2017-10-21T14:33:54.174Z,16.55
2017-10-21T14:35:03.806Z,16.55
2017-10-21T14:36:14.081Z,16.51
2017-10-21T14:37:23.254Z,16.46
2017-10-21T14:38:33.000Z,16.43
2017-10-21T14:39:43.198Z,16.39
2017-10-21T14:40:52.411Z,16.39
2017-10-21T14:42:02.128Z,16.37
2017-10-21T14:43:11.895Z,16.36
2017-10-21T14:44:21.559Z,16.37
2017-10-21T14:45:31.352Z,16.37
2017-10-21T14:46:40.991Z,16.40
2017-10-21T14:47:51.304Z,16.40
2017-10-21T14:49:00.469Z,16.42
2017-10-21T14:50:10.155Z,16.39
2017-10-21T14:51:19.854Z,16.40
2017-10-21T14:52:29.557Z,16.45
2017-10-21T14:53:39.290Z,16.48
2017-10-21T14:54:49.101Z,16.54
2017-10-21T14:55:58.711Z,16.51
2017-10-21T14:57:09.083Z,16.53
2017-10-21T14:58:18.248Z,16.53
2017-10-21T14:59:27.965Z,16.54
2017-10-21T15:00:37.702Z,16.53
2017-10-21T15:01:47.409Z,16.53
2017-10-21T15:02:57.041Z,16.52
2017-10-21T15:04:07.502Z,16.52
2017-10-21T15:05:16.540Z,16.51
2017-10-21T15:06:26.275Z,16.50
2017-10-21T15:07:36.015Z,16.46
2017-10-21T15:08:45.675Z,16.43
2017-10-21T15:09:55.378Z,16.38
2017-10-21T15:11:05.083Z,16.37